X  Fechar Metar - Info de Aeroporto     LPMT Montijo Air Base
Temperatura
20°C Temperatura
17°C Ptº Orvalho
83% Humidade



Vento
16 KM/H
10 MPH
4 M/S
9 NÓS



220°
SO
Condições Atuais

Parcialmente Nublado Parcialmente Nublado
Pressão 1010.84 (hPa) - 29.85 (inHg)
Visibilidade 6 (milha) - 9.7 (km)
Aeroporto
Código-Aeroporto LPMT

Localização: Montijo Air Base
Distância: 6 (km)

Metar:
LPMT 171900Z 22009KT 9999 FEW012 BKN020 20/17 Q1011

Hora: 2024-06-17 20:00 WEST